sensor_id;sensor_type;location;lat;lon;timestamp;temperature;humidity
27276;DHT22;14772;47.398;8.080;2022-08-03T00:01:23;23.70;96.90
27276;DHT22;14772;47.398;8.080;2022-08-03T00:06:20;23.70;96.90
27276;DHT22;14772;47.398;8.080;2022-08-03T00:11:17;23.70;97.00
27276;DHT22;14772;47.398;8.080;2022-08-03T00:16:15;23.60;97.30
27276;DHT22;14772;47.398;8.080;2022-08-03T00:21:12;23.60;97.60
27276;DHT22;14772;47.398;8.080;2022-08-03T00:26:09;23.50;97.90
27276;DHT22;14772;47.398;8.080;2022-08-03T00:31:07;23.40;98.60
27276;DHT22;14772;47.398;8.080;2022-08-03T00:36:04;23.30;99.30
27276;DHT22;14772;47.398;8.080;2022-08-03T00:41:01;23.10;99.70
27276;DHT22;14772;47.398;8.080;2022-08-03T00:45:58;23.20;99.50
27276;DHT22;14772;47.398;8.080;2022-08-03T00:50:56;23.10;99.70
27276;DHT22;14772;47.398;8.080;2022-08-03T00:55:53;23.00;99.90
27276;DHT22;14772;47.398;8.080;2022-08-03T01:00:50;22.90;99.90
27276;DHT22;14772;47.398;8.080;2022-08-03T01:05:52;23.00;99.90
27276;DHT22;14772;47.398;8.080;2022-08-03T01:10:57;22.90;99.90
27276;DHT22;14772;47.398;8.080;2022-08-03T01:15:58;22.80;99.90
27276;DHT22;14772;47.398;8.080;2022-08-03T01:20:56;22.80;99.90
27276;DHT22;14772;47.398;8.080;2022-08-03T01:26:08;22.70;99.90
27276;DHT22;14772;47.398;8.080;2022-08-03T01:31:06;22.70;99.90
27276;DHT22;14772;47.398;8.080;2022-08-03T01:36:08;22.60;99.90
27276;DHT22;14772;47.398;8.080;2022-08-03T01:41:09;22.60;99.90
27276;DHT22;14772;47.398;8.080;2022-08-03T01:46:08;22.50;99.90
27276;DHT22;14772;47.398;8.080;2022-08-03T01:51:08;22.50;99.90
27276;DHT22;14772;47.398;8.080;2022-08-03T01:56:07;22.50;99.90
27276;DHT22;14772;47.398;8.080;2022-08-03T02:01:05;22.50;99.90
27276;DHT22;14772;47.398;8.080;2022-08-03T02:06:03;22.20;99.90
27276;DHT22;14772;47.398;8.080;2022-08-03T02:11:01;22.30;99.90
27276;DHT22;14772;47.398;8.080;2022-08-03T02:16:00;22.30;99.90
27276;DHT22;14772;47.398;8.080;2022-08-03T02:20:58;22.30;99.90
27276;DHT22;14772;47.398;8.080;2022-08-03T02:25:59;22.20;99.90
27276;DHT22;14772;47.398;8.080;2022-08-03T02:30:58;22.30;99.90
27276;DHT22;14772;47.398;8.080;2022-08-03T02:35:57;22.20;99.90
27276;DHT22;14772;47.398;8.080;2022-08-03T02:40:56;22.10;99.90
27276;DHT22;14772;47.398;8.080;2022-08-03T02:45:54;22.00;99.90
27276;DHT22;14772;47.398;8.080;2022-08-03T02:50:53;22.10;99.90
27276;DHT22;14772;47.398;8.080;2022-08-03T02:55:53;22.00;99.90
27276;DHT22;14772;47.398;8.080;2022-08-03T03:00:51;22.00;99.90
27276;DHT22;14772;47.398;8.080;2022-08-03T03:05:50;22.00;99.90
27276;DHT22;14772;47.398;8.080;2022-08-03T03:10:49;21.90;99.90
27276;DHT22;14772;47.398;8.080;2022-08-03T03:15:47;21.90;99.90
27276;DHT22;14772;47.398;8.080;2022-08-03T03:20:45;21.80;99.90
27276;DHT22;14772;47.398;8.080;2022-08-03T03:25:43;21.80;99.90
27276;DHT22;14772;47.398;8.080;2022-08-03T03:30:41;21.70;99.90
27276;DHT22;14772;47.398;8.080;2022-08-03T03:35:39;21.60;99.90
27276;DHT22;14772;47.398;8.080;2022-08-03T03:40:37;21.60;99.90
27276;DHT22;14772;47.398;8.080;2022-08-03T03:45:35;21.50;99.90
27276;DHT22;14772;47.398;8.080;2022-08-03T03:50:33;21.50;99.90
27276;DHT22;14772;47.398;8.080;2022-08-03T03:55:31;21.50;99.90
27276;DHT22;14772;47.398;8.080;2022-08-03T04:00:28;21.50;99.90
27276;DHT22;14772;47.398;8.080;2022-08-03T04:05:26;20.90;99.90
27276;DHT22;14772;47.398;8.080;2022-08-03T04:10:25;20.70;99.90
27276;DHT22;14772;47.398;8.080;2022-08-03T04:15:26;21.00;99.90
27276;DHT22;14772;47.398;8.080;2022-08-03T04:20:26;21.10;99.90
27276;DHT22;14772;47.398;8.080;2022-08-03T04:25:26;21.10;99.90
27276;DHT22;14772;47.398;8.080;2022-08-03T04:30:26;21.10;99.90
27276;DHT22;14772;47.398;8.080;2022-08-03T04:35:24;21.10;99.90
27276;DHT22;14772;47.398;8.080;2022-08-03T04:40:25;21.00;99.90
27276;DHT22;14772;47.398;8.080;2022-08-03T04:45:24;21.00;99.90
27276;DHT22;14772;47.398;8.080;2022-08-03T04:50:22;21.10;99.90
27276;DHT22;14772;47.398;8.080;2022-08-03T04:55:27;21.10;99.90
27276;DHT22;14772;47.398;8.080;2022-08-03T05:00:26;21.10;99.90
27276;DHT22;14772;47.398;8.080;2022-08-03T05:05:23;21.20;99.90
27276;DHT22;14772;47.398;8.080;2022-08-03T05:10:21;21.10;99.90
27276;DHT22;14772;47.398;8.080;2022-08-03T05:15:18;21.20;99.90
27276;DHT22;14772;47.398;8.080;2022-08-03T05:20:15;20.90;99.90
27276;DHT22;14772;47.398;8.080;2022-08-03T05:25:12;21.20;99.90
27276;DHT22;14772;47.398;8.080;2022-08-03T05:30:10;21.20;99.90
27276;DHT22;14772;47.398;8.080;2022-08-03T05:35:08;21.40;99.90
27276;DHT22;14772;47.398;8.080;2022-08-03T05:40:08;21.60;99.90
27276;DHT22;14772;47.398;8.080;2022-08-03T05:45:06;21.70;99.90
27276;DHT22;14772;47.398;8.080;2022-08-03T05:50:06;21.90;99.90
27276;DHT22;14772;47.398;8.080;2022-08-03T05:55:04;22.10;99.90
27276;DHT22;14772;47.398;8.080;2022-08-03T06:00:03;22.10;99.90
27276;DHT22;14772;47.398;8.080;2022-08-03T06:05:01;22.10;99.90
27276;DHT22;14772;47.398;8.080;2022-08-03T06:09:58;22.30;99.90
27276;DHT22;14772;47.398;8.080;2022-08-03T06:14:55;22.50;99.90
27276;DHT22;14772;47.398;8.080;2022-08-03T06:19:53;22.10;99.90
27276;DHT22;14772;47.398;8.080;2022-08-03T06:24:50;22.20;99.90
27276;DHT22;14772;47.398;8.080;2022-08-03T06:29:47;22.50;99.90
27276;DHT22;14772;47.398;8.080;2022-08-03T06:34:45;22.60;99.90
27276;DHT22;14772;47.398;8.080;2022-08-03T06:39:42;22.80;99.90
27276;DHT22;14772;47.398;8.080;2022-08-03T06:44:39;23.10;99.90
27276;DHT22;14772;47.398;8.080;2022-08-03T06:49:36;23.20;99.90
27276;DHT22;14772;47.398;8.080;2022-08-03T06:54:34;23.40;99.90
27276;DHT22;14772;47.398;8.080;2022-08-03T06:59:32;23.50;99.90
27276;DHT22;14772;47.398;8.080;2022-08-03T07:04:29;23.70;99.90
27276;DHT22;14772;47.398;8.080;2022-08-03T07:09:26;23.80;99.90
27276;DHT22;14772;47.398;8.080;2022-08-03T07:14:23;24.00;99.90
27276;DHT22;14772;47.398;8.080;2022-08-03T07:19:20;24.20;99.90
27276;DHT22;14772;47.398;8.080;2022-08-03T07:24:17;24.30;99.90
27276;DHT22;14772;47.398;8.080;2022-08-03T07:29:15;24.40;99.90
27276;DHT22;14772;47.398;8.080;2022-08-03T07:34:12;24.40;99.90
27276;DHT22;14772;47.398;8.080;2022-08-03T07:39:09;24.30;99.90
27276;DHT22;14772;47.398;8.080;2022-08-03T07:44:06;24.50;99.90
27276;DHT22;14772;47.398;8.080;2022-08-03T07:49:03;24.70;99.90
27276;DHT22;14772;47.398;8.080;2022-08-03T07:54:00;24.80;99.90
27276;DHT22;14772;47.398;8.080;2022-08-03T07:58:58;25.00;99.90
27276;DHT22;14772;47.398;8.080;2022-08-03T08:03:55;25.10;99.90
27276;DHT22;14772;47.398;8.080;2022-08-03T08:08:52;25.30;99.90
27276;DHT22;14772;47.398;8.080;2022-08-03T08:13:49;25.30;99.90
27276;DHT22;14772;47.398;8.080;2022-08-03T08:18:46;25.40;99.90
27276;DHT22;14772;47.398;8.080;2022-08-03T08:23:43;25.70;99.90
27276;DHT22;14772;47.398;8.080;2022-08-03T08:28:41;25.80;99.90
27276;DHT22;14772;47.398;8.080;2022-08-03T08:33:38;25.90;99.90
27276;DHT22;14772;47.398;8.080;2022-08-03T08:38:35;25.70;99.90
27276;DHT22;14772;47.398;8.080;2022-08-03T08:43:32;26.10;99.90
27276;DHT22;14772;47.398;8.080;2022-08-03T08:48:29;26.20;99.90
27276;DHT22;14772;47.398;8.080;2022-08-03T08:53:28;26.40;99.90
27276;DHT22;14772;47.398;8.080;2022-08-03T08:58:25;26.50;99.90
27276;DHT22;14772;47.398;8.080;2022-08-03T09:03:24;26.60;99.90
27276;DHT22;14772;47.398;8.080;2022-08-03T09:08:21;26.80;99.90
27276;DHT22;14772;47.398;8.080;2022-08-03T09:13:18;27.00;99.60
27276;DHT22;14772;47.398;8.080;2022-08-03T09:18:24;27.00;99.00
27276;DHT22;14772;47.398;8.080;2022-08-03T09:23:20;27.10;98.60
27276;DHT22;14772;47.398;8.080;2022-08-03T09:28:17;27.20;98.50
27276;DHT22;14772;47.398;8.080;2022-08-03T09:33:15;27.30;98.10
27276;DHT22;14772;47.398;8.080;2022-08-03T09:38:13;27.40;97.90
27276;DHT22;14772;47.398;8.080;2022-08-03T09:43:10;27.40;97.30
27276;DHT22;14772;47.398;8.080;2022-08-03T09:48:21;27.60;97.10
27276;DHT22;14772;47.398;8.080;2022-08-03T09:53:19;27.70;96.80
27276;DHT22;14772;47.398;8.080;2022-08-03T09:58:16;27.80;96.20
27276;DHT22;14772;47.398;8.080;2022-08-03T10:03:13;27.80;95.90
27276;DHT22;14772;47.398;8.080;2022-08-03T10:08:14;27.90;95.90
27276;DHT22;14772;47.398;8.080;2022-08-03T10:13:13;28.10;95.20
27276;DHT22;14772;47.398;8.080;2022-08-03T10:18:11;28.20;94.40
27276;DHT22;14772;47.398;8.080;2022-08-03T10:23:09;28.30;94.10
27276;DHT22;14772;47.398;8.080;2022-08-03T10:28:07;28.40;92.80
27276;DHT22;14772;47.398;8.080;2022-08-03T10:33:10;28.50;92.60
27276;DHT22;14772;47.398;8.080;2022-08-03T10:38:11;28.60;91.40
27276;DHT22;14772;47.398;8.080;2022-08-03T10:43:11;28.70;90.90
27276;DHT22;14772;47.398;8.080;2022-08-03T10:48:08;28.80;90.60
27276;DHT22;14772;47.398;8.080;2022-08-03T10:53:06;28.90;88.10
27276;DHT22;14772;47.398;8.080;2022-08-03T10:58:03;29.00;87.90
27276;DHT22;14772;47.398;8.080;2022-08-03T11:03:06;29.00;87.90
27276;DHT22;14772;47.398;8.080;2022-08-03T11:08:19;29.10;88.20
27276;DHT22;14772;47.398;8.080;2022-08-03T11:13:19;29.10;87.10
27276;DHT22;14772;47.398;8.080;2022-08-03T11:18:16;29.20;85.60
27276;DHT22;14772;47.398;8.080;2022-08-03T11:23:14;29.30;85.20
27276;DHT22;14772;47.398;8.080;2022-08-03T11:28:26;29.40;80.30
27276;DHT22;14772;47.398;8.080;2022-08-03T11:33:30;29.60;78.10
27276;DHT22;14772;47.398;8.080;2022-08-03T11:38:27;29.60;80.70
27276;DHT22;14772;47.398;8.080;2022-08-03T11:43:44;29.70;80.20
27276;DHT22;14772;47.398;8.080;2022-08-03T11:48:43;29.90;79.20
27276;DHT22;14772;47.398;8.080;2022-08-03T11:53:42;30.00;80.00
27276;DHT22;14772;47.398;8.080;2022-08-03T11:58:46;30.10;78.80
27276;DHT22;14772;47.398;8.080;2022-08-03T12:03:43;30.30;79.60
27276;DHT22;14772;47.398;8.080;2022-08-03T12:08:41;30.50;77.20
27276;DHT22;14772;47.398;8.080;2022-08-03T12:13:41;30.50;75.70
27276;DHT22;14772;47.398;8.080;2022-08-03T12:18:38;30.60;75.80
27276;DHT22;14772;47.398;8.080;2022-08-03T12:23:36;30.80;74.60
27276;DHT22;14772;47.398;8.080;2022-08-03T12:28:33;30.90;73.30
27276;DHT22;14772;47.398;8.080;2022-08-03T12:33:32;31.10;71.90
27276;DHT22;14772;47.398;8.080;2022-08-03T12:38:29;31.30;72.90
27276;DHT22;14772;47.398;8.080;2022-08-03T12:43:27;31.30;72.40
27276;DHT22;14772;47.398;8.080;2022-08-03T12:48:25;31.50;73.70
27276;DHT22;14772;47.398;8.080;2022-08-03T12:53:29;31.80;73.30
27276;DHT22;14772;47.398;8.080;2022-08-03T12:58:31;32.10;71.30
27276;DHT22;14772;47.398;8.080;2022-08-03T13:03:28;32.20;70.30
27276;DHT22;14772;47.398;8.080;2022-08-03T13:08:25;32.30;70.20
27276;DHT22;14772;47.398;8.080;2022-08-03T13:13:38;32.40;67.50
27276;DHT22;14772;47.398;8.080;2022-08-03T13:18:35;32.50;67.70
27276;DHT22;14772;47.398;8.080;2022-08-03T13:23:32;32.60;65.80
27276;DHT22;14772;47.398;8.080;2022-08-03T13:28:30;32.70;66.50
27276;DHT22;14772;47.398;8.080;2022-08-03T13:33:27;32.90;64.50
27276;DHT22;14772;47.398;8.080;2022-08-03T13:38:25;33.00;63.70
27276;DHT22;14772;47.398;8.080;2022-08-03T13:43:22;33.30;59.40
27276;DHT22;14772;47.398;8.080;2022-08-03T13:48:19;33.50;58.00
27276;DHT22;14772;47.398;8.080;2022-08-03T13:53:16;33.60;56.30
27276;DHT22;14772;47.398;8.080;2022-08-03T13:58:13;33.90;56.00
27276;DHT22;14772;47.398;8.080;2022-08-03T14:03:10;34.00;55.00
27276;DHT22;14772;47.398;8.080;2022-08-03T14:08:08;34.30;53.90
27276;DHT22;14772;47.398;8.080;2022-08-03T14:13:06;34.40;53.60
27276;DHT22;14772;47.398;8.080;2022-08-03T14:18:03;34.30;52.90
27276;DHT22;14772;47.398;8.080;2022-08-03T14:23:00;34.50;53.00
27276;DHT22;14772;47.398;8.080;2022-08-03T14:27:57;34.50;53.60
27276;DHT22;14772;47.398;8.080;2022-08-03T14:32:54;34.70;53.60
27276;DHT22;14772;47.398;8.080;2022-08-03T14:37:52;34.70;53.40
27276;DHT22;14772;47.398;8.080;2022-08-03T14:42:49;34.90;52.50
27276;DHT22;14772;47.398;8.080;2022-08-03T14:47:46;35.10;52.50
27276;DHT22;14772;47.398;8.080;2022-08-03T14:52:43;35.40;51.50
27276;DHT22;14772;47.398;8.080;2022-08-03T14:57:40;35.50;51.00
27276;DHT22;14772;47.398;8.080;2022-08-03T15:02:39;35.70;51.30
27276;DHT22;14772;47.398;8.080;2022-08-03T15:07:37;35.70;50.10
27276;DHT22;14772;47.398;8.080;2022-08-03T15:12:34;35.70;50.60
27276;DHT22;14772;47.398;8.080;2022-08-03T15:17:31;35.70;50.10
27276;DHT22;14772;47.398;8.080;2022-08-03T15:22:28;35.70;50.20
27276;DHT22;14772;47.398;8.080;2022-08-03T15:27:25;35.90;50.10
27276;DHT22;14772;47.398;8.080;2022-08-03T15:32:22;36.00;50.10
27276;DHT22;14772;47.398;8.080;2022-08-03T15:37:19;36.20;50.00
27276;DHT22;14772;47.398;8.080;2022-08-03T15:42:17;36.40;49.10
27276;DHT22;14772;47.398;8.080;2022-08-03T15:47:14;36.60;48.60
27276;DHT22;14772;47.398;8.080;2022-08-03T15:52:11;36.70;48.70
27276;DHT22;14772;47.398;8.080;2022-08-03T15:57:08;37.00;47.80
27276;DHT22;14772;47.398;8.080;2022-08-03T16:02:05;36.90;47.20
27276;DHT22;14772;47.398;8.080;2022-08-03T16:07:03;36.70;47.60
27276;DHT22;14772;47.398;8.080;2022-08-03T16:12:00;36.80;48.70
27276;DHT22;14772;47.398;8.080;2022-08-03T16:16:58;36.80;48.40
27276;DHT22;14772;47.398;8.080;2022-08-03T16:21:55;36.60;47.30
27276;DHT22;14772;47.398;8.080;2022-08-03T16:26:52;36.80;47.30
27276;DHT22;14772;47.398;8.080;2022-08-03T16:31:49;37.00;46.60
27276;DHT22;14772;47.398;8.080;2022-08-03T16:36:47;36.90;45.80
27276;DHT22;14772;47.398;8.080;2022-08-03T16:41:44;36.90;45.40
27276;DHT22;14772;47.398;8.080;2022-08-03T16:46:42;36.70;45.10
27276;DHT22;14772;47.398;8.080;2022-08-03T16:51:39;36.60;44.80
27276;DHT22;14772;47.398;8.080;2022-08-03T16:56:36;36.90;44.50
27276;DHT22;14772;47.398;8.080;2022-08-03T17:01:34;37.20;44.60
27276;DHT22;14772;47.398;8.080;2022-08-03T17:06:34;37.40;43.90
27276;DHT22;14772;47.398;8.080;2022-08-03T17:11:31;37.30;43.20
27276;DHT22;14772;47.398;8.080;2022-08-03T17:16:29;37.30;42.90
27276;DHT22;14772;47.398;8.080;2022-08-03T17:21:28;37.20;42.50
27276;DHT22;14772;47.398;8.080;2022-08-03T17:26:26;37.20;43.00
27276;DHT22;14772;47.398;8.080;2022-08-03T17:31:25;37.20;43.10
27276;DHT22;14772;47.398;8.080;2022-08-03T17:36:22;37.00;42.90
27276;DHT22;14772;47.398;8.080;2022-08-03T17:41:20;36.70;42.80
27276;DHT22;14772;47.398;8.080;2022-08-03T17:46:19;36.20;44.30
27276;DHT22;14772;47.398;8.080;2022-08-03T17:51:21;35.80;44.40
27276;DHT22;14772;47.398;8.080;2022-08-03T17:56:24;35.40;45.80
27276;DHT22;14772;47.398;8.080;2022-08-03T18:01:25;35.00;46.90
27276;DHT22;14772;47.398;8.080;2022-08-03T18:06:25;34.70;47.50
27276;DHT22;14772;47.398;8.080;2022-08-03T18:11:27;34.40;48.20
27276;DHT22;14772;47.398;8.080;2022-08-03T18:16:28;34.10;48.60
27276;DHT22;14772;47.398;8.080;2022-08-03T18:21:26;34.00;49.30
27276;DHT22;14772;47.398;8.080;2022-08-03T18:26:23;33.80;49.70
27276;DHT22;14772;47.398;8.080;2022-08-03T18:31:21;33.70;50.40
27276;DHT22;14772;47.398;8.080;2022-08-03T18:36:20;33.60;50.80
27276;DHT22;14772;47.398;8.080;2022-08-03T18:41:18;33.40;51.60
27276;DHT22;14772;47.398;8.080;2022-08-03T18:46:22;33.30;51.60
27276;DHT22;14772;47.398;8.080;2022-08-03T18:51:22;33.00;54.00
27276;DHT22;14772;47.398;8.080;2022-08-03T18:56:22;32.90;54.20
27276;DHT22;14772;47.398;8.080;2022-08-03T19:01:26;32.60;54.50
27276;DHT22;14772;47.398;8.080;2022-08-03T19:06:25;32.40;54.90
27276;DHT22;14772;47.398;8.080;2022-08-03T19:11:28;32.30;55.60
27276;DHT22;14772;47.398;8.080;2022-08-03T19:16:30;32.00;57.60
27276;DHT22;14772;47.398;8.080;2022-08-03T19:21:29;31.80;60.30
27276;DHT22;14772;47.398;8.080;2022-08-03T19:26:27;31.50;61.80
27276;DHT22;14772;47.398;8.080;2022-08-03T19:31:25;31.40;62.30
27276;DHT22;14772;47.398;8.080;2022-08-03T19:36:24;31.20;63.50
27276;DHT22;14772;47.398;8.080;2022-08-03T19:41:23;31.00;65.10
27276;DHT22;14772;47.398;8.080;2022-08-03T19:51:32;30.50;67.30
27276;DHT22;14772;47.398;8.080;2022-08-03T19:56:30;30.30;69.50
27276;DHT22;14772;47.398;8.080;2022-08-03T20:01:27;30.30;69.60
27276;DHT22;14772;47.398;8.080;2022-08-03T20:06:25;30.10;69.70
27276;DHT22;14772;47.398;8.080;2022-08-03T20:11:24;30.00;70.70
27276;DHT22;14772;47.398;8.080;2022-08-03T20:16:21;29.80;71.00
27276;DHT22;14772;47.398;8.080;2022-08-03T20:21:19;29.70;71.70
27276;DHT22;14772;47.398;8.080;2022-08-03T20:26:19;29.60;72.70
27276;DHT22;14772;47.398;8.080;2022-08-03T20:31:19;29.40;73.60
27276;DHT22;14772;47.398;8.080;2022-08-03T20:36:16;29.40;74.10
27276;DHT22;14772;47.398;8.080;2022-08-03T20:41:13;29.20;75.00
27276;DHT22;14772;47.398;8.080;2022-08-03T20:46:10;29.10;76.00
27276;DHT22;14772;47.398;8.080;2022-08-03T20:51:09;29.00;76.70
27276;DHT22;14772;47.398;8.080;2022-08-03T20:56:08;28.90;77.50
27276;DHT22;14772;47.398;8.080;2022-08-03T21:01:05;28.80;78.70
27276;DHT22;14772;47.398;8.080;2022-08-03T21:06:05;28.70;79.60
27276;DHT22;14772;47.398;8.080;2022-08-03T21:11:04;28.70;80.80
27276;DHT22;14772;47.398;8.080;2022-08-03T21:16:04;28.60;81.90
27276;DHT22;14772;47.398;8.080;2022-08-03T21:21:03;28.40;83.00
27276;DHT22;14772;47.398;8.080;2022-08-03T21:26:02;28.30;84.00
27276;DHT22;14772;47.398;8.080;2022-08-03T21:31:00;28.10;86.50
27276;DHT22;14772;47.398;8.080;2022-08-03T21:35:58;28.10;87.30
27276;DHT22;14772;47.398;8.080;2022-08-03T21:40:55;28.10;87.90
27276;DHT22;14772;47.398;8.080;2022-08-03T21:45:56;27.90;89.20
27276;DHT22;14772;47.398;8.080;2022-08-03T21:50:53;27.80;90.30
27276;DHT22;14772;47.398;8.080;2022-08-03T21:55:54;27.80;90.90
27276;DHT22;14772;47.398;8.080;2022-08-03T22:00:52;27.70;91.30
27276;DHT22;14772;47.398;8.080;2022-08-03T22:05:50;27.70;91.70
27276;DHT22;14772;47.398;8.080;2022-08-03T22:10:47;27.50;92.40
27276;DHT22;14772;47.398;8.080;2022-08-03T22:15:46;27.30;93.30
27276;DHT22;14772;47.398;8.080;2022-08-03T22:20:47;27.10;94.00
27276;DHT22;14772;47.398;8.080;2022-08-03T22:25:46;26.90;94.80
27276;DHT22;14772;47.398;8.080;2022-08-03T22:30:43;26.90;95.20
27276;DHT22;14772;47.398;8.080;2022-08-03T22:35:44;26.90;95.60
27276;DHT22;14772;47.398;8.080;2022-08-03T22:40:42;26.80;95.90
27276;DHT22;14772;47.398;8.080;2022-08-03T22:45:43;26.70;96.40
27276;DHT22;14772;47.398;8.080;2022-08-03T22:50:42;26.70;96.90
27276;DHT22;14772;47.398;8.080;2022-08-03T22:55:40;26.70;97.10
27276;DHT22;14772;47.398;8.080;2022-08-03T23:00:41;26.60;97.70
27276;DHT22;14772;47.398;8.080;2022-08-03T23:05:41;26.50;98.10
27276;DHT22;14772;47.398;8.080;2022-08-03T23:10:40;26.40;98.60
27276;DHT22;14772;47.398;8.080;2022-08-03T23:15:38;26.40;99.00
27276;DHT22;14772;47.398;8.080;2022-08-03T23:20:36;26.20;99.70
27276;DHT22;14772;47.398;8.080;2022-08-03T23:25:33;26.20;99.90
27276;DHT22;14772;47.398;8.080;2022-08-03T23:30:31;26.00;99.90
27276;DHT22;14772;47.398;8.080;2022-08-03T23:35:29;25.90;99.90
27276;DHT22;14772;47.398;8.080;2022-08-03T23:40:27;25.90;99.90
27276;DHT22;14772;47.398;8.080;2022-08-03T23:45:25;25.90;99.90
27276;DHT22;14772;47.398;8.080;2022-08-03T23:50:22;25.80;99.90
